sensor_id;sensor_type;location;lat;lon;timestamp;pressure;altitude;pressure_sealevel;temperature;humidity
59831;BME280;45711;50.108;13.712;2023-08-01T00:01:21;96935.56;;;19.17;71.64
59831;BME280;45711;50.108;13.712;2023-08-01T00:03:46;96926.47;;;19.71;68.65
59831;BME280;45711;50.108;13.712;2023-08-01T00:06:12;96934.84;;;19.63;67.92
59831;BME280;45711;50.108;13.712;2023-08-01T00:08:38;96930.84;;;19.56;68.04
59831;BME280;45711;50.108;13.712;2023-08-01T00:11:04;96921.41;;;18.69;70.45
59831;BME280;45711;50.108;13.712;2023-08-01T00:13:29;96920.84;;;19.18;70.53
59831;BME280;45711;50.108;13.712;2023-08-01T00:15:55;96921.72;;;19.65;68.49
59831;BME280;45711;50.108;13.712;2023-08-01T00:18:22;96921.06;;;19.09;70.01
59831;BME280;45711;50.108;13.712;2023-08-01T00:20:47;96920.13;;;19.21;70.11
59831;BME280;45711;50.108;13.712;2023-08-01T00:23:13;96920.47;;;19.39;69.28
59831;BME280;45711;50.108;13.712;2023-08-01T00:25:39;96917.06;;;19.65;68.39
59831;BME280;45711;50.108;13.712;2023-08-01T00:28:04;96922.81;;;19.41;69.19
59831;BME280;45711;50.108;13.712;2023-08-01T00:30:30;96918.78;;;19.54;68.61
59831;BME280;45711;50.108;13.712;2023-08-01T00:32:55;96912.25;;;19.58;68.71
59831;BME280;45711;50.108;13.712;2023-08-01T00:35:22;96904.81;;;19.52;68.86
59831;BME280;45711;50.108;13.712;2023-08-01T00:37:48;96906.50;;;19.60;68.46
59831;BME280;45711;50.108;13.712;2023-08-01T00:40:13;96890.75;;;18.84;70.11
59831;BME280;45711;50.108;13.712;2023-08-01T00:42:39;96882.78;;;19.34;70.41
59831;BME280;45711;50.108;13.712;2023-08-01T00:45:06;96873.28;;;19.67;68.75
59831;BME280;45711;50.108;13.712;2023-08-01T00:47:31;96870.22;;;18.83;69.83
59831;BME280;45711;50.108;13.712;2023-08-01T00:49:57;96870.31;;;18.52;71.93
59831;BME280;45711;50.108;13.712;2023-08-01T00:52:24;96870.81;;;18.57;72.97
59831;BME280;45711;50.108;13.712;2023-08-01T00:54:50;96868.38;;;18.33;72.92
59831;BME280;45711;50.108;13.712;2023-08-01T00:57:16;96865.09;;;18.43;73.70
59831;BME280;45711;50.108;13.712;2023-08-01T00:59:41;96861.25;;;18.09;73.11
59831;BME280;45711;50.108;13.712;2023-08-01T01:02:07;96863.56;;;17.75;75.75
59831;BME280;45711;50.108;13.712;2023-08-01T01:04:32;96850.63;;;17.84;75.38
59831;BME280;45711;50.108;13.712;2023-08-01T01:07:02;96846.78;;;18.01;76.18
59831;BME280;45711;50.108;13.712;2023-08-01T01:09:30;96838.63;;;18.17;74.39
59831;BME280;45711;50.108;13.712;2023-08-01T01:11:58;96834.47;;;18.04;75.08
59831;BME280;45711;50.108;13.712;2023-08-01T01:14:24;96839.88;;;18.39;73.02
59831;BME280;45711;50.108;13.712;2023-08-01T01:16:50;96841.81;;;17.72;76.30
59831;BME280;45711;50.108;13.712;2023-08-01T01:19:17;96839.00;;;18.00;76.95
59831;BME280;45711;50.108;13.712;2023-08-01T01:21:44;96829.25;;;17.95;76.35
59831;BME280;45711;50.108;13.712;2023-08-01T01:24:13;96815.13;;;18.41;74.50
59831;BME280;45711;50.108;13.712;2023-08-01T01:26:40;96820.00;;;18.51;74.26
59831;BME280;45711;50.108;13.712;2023-08-01T01:29:06;96817.19;;;19.28;71.13
59831;BME280;45711;50.108;13.712;2023-08-01T01:31:34;96801.72;;;19.29;70.45
59831;BME280;45711;50.108;13.712;2023-08-01T01:34:00;96794.09;;;19.15;71.11
59831;BME280;45711;50.108;13.712;2023-08-01T01:36:26;96800.41;;;18.77;71.36
59831;BME280;45711;50.108;13.712;2023-08-01T01:38:53;96792.47;;;18.49;71.87
59831;BME280;45711;50.108;13.712;2023-08-01T01:41:18;96800.19;;;19.08;71.80
59831;BME280;45711;50.108;13.712;2023-08-01T01:43:44;96791.56;;;19.49;69.35
59831;BME280;45711;50.108;13.712;2023-08-01T01:46:09;96802.31;;;19.19;70.46
59831;BME280;45711;50.108;13.712;2023-08-01T01:48:35;96794.13;;;18.73;72.28
59831;BME280;45711;50.108;13.712;2023-08-01T01:51:01;96783.47;;;19.52;69.75
59831;BME280;45711;50.108;13.712;2023-08-01T01:53:26;96791.31;;;18.30;73.12
59831;BME280;45711;50.108;13.712;2023-08-01T01:55:53;96782.53;;;19.18;71.58
59831;BME280;45711;50.108;13.712;2023-08-01T01:58:18;96774.06;;;18.19;74.41
59831;BME280;45711;50.108;13.712;2023-08-01T02:00:44;96781.06;;;18.20;76.37
59831;BME280;45711;50.108;13.712;2023-08-01T02:03:09;96771.16;;;18.28;75.95
59831;BME280;45711;50.108;13.712;2023-08-01T02:05:35;96767.66;;;19.08;72.83
59831;BME280;45711;50.108;13.712;2023-08-01T02:08:01;96762.72;;;18.72;74.83
59831;BME280;45711;50.108;13.712;2023-08-01T02:10:27;96764.16;;;18.27;74.87
59831;BME280;45711;50.108;13.712;2023-08-01T02:12:53;96757.09;;;18.80;74.41
59831;BME280;45711;50.108;13.712;2023-08-01T02:15:19;96747.09;;;18.84;74.05
59831;BME280;45711;50.108;13.712;2023-08-01T02:17:44;96739.16;;;17.95;75.79
59831;BME280;45711;50.108;13.712;2023-08-01T02:20:11;96737.44;;;18.45;74.89
59831;BME280;45711;50.108;13.712;2023-08-01T02:22:36;96736.72;;;18.48;75.29
59831;BME280;45711;50.108;13.712;2023-08-01T02:25:02;96733.38;;;18.35;76.22
59831;BME280;45711;50.108;13.712;2023-08-01T02:27:28;96733.31;;;18.51;76.44
59831;BME280;45711;50.108;13.712;2023-08-01T02:29:55;96723.78;;;17.99;76.98
59831;BME280;45711;50.108;13.712;2023-08-01T02:32:20;96720.66;;;18.16;77.16
59831;BME280;45711;50.108;13.712;2023-08-01T02:34:46;96718.91;;;19.12;72.94
59831;BME280;45711;50.108;13.712;2023-08-01T02:37:11;96721.31;;;19.17;72.19
59831;BME280;45711;50.108;13.712;2023-08-01T02:39:37;96719.97;;;19.30;71.49
59831;BME280;45711;50.108;13.712;2023-08-01T02:42:03;96716.44;;;18.80;73.08
59831;BME280;45711;50.108;13.712;2023-08-01T02:44:28;96714.91;;;18.41;74.44
59831;BME280;45711;50.108;13.712;2023-08-01T02:46:55;96720.03;;;19.11;72.59
59831;BME280;45711;50.108;13.712;2023-08-01T02:49:21;96718.63;;;19.44;70.48
59831;BME280;45711;50.108;13.712;2023-08-01T02:51:46;96722.97;;;18.37;75.49
59831;BME280;45711;50.108;13.712;2023-08-01T02:54:12;96722.59;;;18.77;75.10
59831;BME280;45711;50.108;13.712;2023-08-01T02:56:38;96717.34;;;18.88;74.29
59831;BME280;45711;50.108;13.712;2023-08-01T02:59:06;96712.47;;;19.47;70.99
59831;BME280;45711;50.108;13.712;2023-08-01T03:01:33;96718.19;;;18.50;74.93
59831;BME280;45711;50.108;13.712;2023-08-01T03:04:00;96705.38;;;17.89;77.86
59831;BME280;45711;50.108;13.712;2023-08-01T03:06:26;96712.28;;;18.67;76.15
59831;BME280;45711;50.108;13.712;2023-08-01T03:08:51;96714.22;;;18.05;78.51
59831;BME280;45711;50.108;13.712;2023-08-01T03:11:17;96718.41;;;17.67;80.96
59831;BME280;45711;50.108;13.712;2023-08-01T03:13:43;96718.97;;;17.41;82.94
59831;BME280;45711;50.108;13.712;2023-08-01T03:16:08;96717.25;;;17.49;83.61
59831;BME280;45711;50.108;13.712;2023-08-01T03:18:35;96715.66;;;17.64;82.26
59831;BME280;45711;50.108;13.712;2023-08-01T03:21:02;96698.50;;;18.72;77.57
59831;BME280;45711;50.108;13.712;2023-08-01T03:23:29;96700.78;;;17.73;80.87
59831;BME280;45711;50.108;13.712;2023-08-01T03:25:57;96690.41;;;18.14;80.73
59831;BME280;45711;50.108;13.712;2023-08-01T03:28:25;96683.16;;;17.99;79.37
59831;BME280;45711;50.108;13.712;2023-08-01T03:30:51;96677.75;;;17.99;79.62
59831;BME280;45711;50.108;13.712;2023-08-01T03:33:18;96680.69;;;18.52;77.51
59831;BME280;45711;50.108;13.712;2023-08-01T03:35:44;96677.03;;;18.21;78.43
59831;BME280;45711;50.108;13.712;2023-08-01T03:38:11;96679.81;;;17.51;81.40
59831;BME280;45711;50.108;13.712;2023-08-01T03:40:37;96672.31;;;18.18;79.97
59831;BME280;45711;50.108;13.712;2023-08-01T03:43:02;96657.56;;;18.35;78.05
59831;BME280;45711;50.108;13.712;2023-08-01T03:45:28;96659.56;;;17.45;81.15
59831;BME280;45711;50.108;13.712;2023-08-01T03:47:53;96664.00;;;18.07;81.11
59831;BME280;45711;50.108;13.712;2023-08-01T03:50:19;96663.34;;;17.40;82.35
59831;BME280;45711;50.108;13.712;2023-08-01T03:52:44;96651.59;;;17.68;82.19
59831;BME280;45711;50.108;13.712;2023-08-01T03:55:12;96647.97;;;17.79;81.23
59831;BME280;45711;50.108;13.712;2023-08-01T03:57:37;96645.53;;;18.13;80.29
59831;BME280;45711;50.108;13.712;2023-08-01T04:00:05;96642.69;;;18.06;80.62
59831;BME280;45711;50.108;13.712;2023-08-01T04:02:31;96637.53;;;17.62;81.95
59831;BME280;45711;50.108;13.712;2023-08-01T04:04:56;96639.13;;;17.63;82.92
59831;BME280;45711;50.108;13.712;2023-08-01T04:07:22;96648.34;;;17.62;81.99
59831;BME280;45711;50.108;13.712;2023-08-01T04:09:47;96631.38;;;18.89;76.33
59831;BME280;45711;50.108;13.712;2023-08-01T04:12:14;96630.66;;;18.69;75.69
59831;BME280;45711;50.108;13.712;2023-08-01T04:14:39;96624.06;;;19.16;73.05
59831;BME280;45711;50.108;13.712;2023-08-01T04:17:05;96624.28;;;19.03;73.55
59831;BME280;45711;50.108;13.712;2023-08-01T04:19:31;96634.50;;;18.45;75.91
59831;BME280;45711;50.108;13.712;2023-08-01T04:21:56;96620.91;;;17.79;80.44
59831;BME280;45711;50.108;13.712;2023-08-01T04:24:22;96616.84;;;18.74;76.74
59831;BME280;45711;50.108;13.712;2023-08-01T04:26:50;96617.00;;;18.39;77.96
59831;BME280;45711;50.108;13.712;2023-08-01T04:29:17;96615.25;;;18.50;77.61
59831;BME280;45711;50.108;13.712;2023-08-01T04:31:43;96611.09;;;17.91;79.98
59831;BME280;45711;50.108;13.712;2023-08-01T04:34:09;96608.94;;;17.80;81.89
59831;BME280;45711;50.108;13.712;2023-08-01T04:36:34;96608.78;;;17.54;83.09
59831;BME280;45711;50.108;13.712;2023-08-01T04:39:00;96600.50;;;18.24;79.58
59831;BME280;45711;50.108;13.712;2023-08-01T04:41:25;96598.34;;;17.91;79.57
59831;BME280;45711;50.108;13.712;2023-08-01T04:43:51;96590.19;;;17.72;82.59
59831;BME280;45711;50.108;13.712;2023-08-01T04:46:18;96596.97;;;18.01;81.12
59831;BME280;45711;50.108;13.712;2023-08-01T04:48:44;96585.50;;;17.69;81.84
59831;BME280;45711;50.108;13.712;2023-08-01T04:51:09;96581.66;;;18.31;79.53
59831;BME280;45711;50.108;13.712;2023-08-01T04:53:35;96574.75;;;18.34;77.79
59831;BME280;45711;50.108;13.712;2023-08-01T04:56:00;96591.72;;;17.89;81.22
59831;BME280;45711;50.108;13.712;2023-08-01T04:58:26;96581.19;;;17.83;80.19
59831;BME280;45711;50.108;13.712;2023-08-01T05:00:51;96594.59;;;17.41;84.24
59831;BME280;45711;50.108;13.712;2023-08-01T05:03:18;96580.84;;;17.85;80.73
59831;BME280;45711;50.108;13.712;2023-08-01T05:05:44;96586.00;;;17.36;83.40
59831;BME280;45711;50.108;13.712;2023-08-01T05:08:09;96573.78;;;17.42;84.40
59831;BME280;45711;50.108;13.712;2023-08-01T05:10:35;96559.97;;;17.86;81.40
59831;BME280;45711;50.108;13.712;2023-08-01T05:13:00;96560.72;;;17.67;82.26
59831;BME280;45711;50.108;13.712;2023-08-01T05:15:26;96558.91;;;18.36;80.40
59831;BME280;45711;50.108;13.712;2023-08-01T05:17:52;96565.78;;;17.29;83.43
59831;BME280;45711;50.108;13.712;2023-08-01T05:20:19;96560.69;;;17.08;84.23
59831;BME280;45711;50.108;13.712;2023-08-01T05:22:44;96551.06;;;18.54;79.65
59831;BME280;45711;50.108;13.712;2023-08-01T05:25:10;96570.03;;;17.50;83.27
59831;BME280;45711;50.108;13.712;2023-08-01T05:27:35;96558.78;;;18.06;82.73
59831;BME280;45711;50.108;13.712;2023-08-01T05:30:01;96558.38;;;17.84;81.59
59831;BME280;45711;50.108;13.712;2023-08-01T05:32:27;96553.19;;;17.95;82.02
59831;BME280;45711;50.108;13.712;2023-08-01T05:34:52;96562.91;;;17.77;83.07
59831;BME280;45711;50.108;13.712;2023-08-01T05:37:19;96555.06;;;18.14;81.24
59831;BME280;45711;50.108;13.712;2023-08-01T05:39:45;96552.97;;;17.65;81.92
59831;BME280;45711;50.108;13.712;2023-08-01T05:42:13;96556.59;;;17.73;81.86
59831;BME280;45711;50.108;13.712;2023-08-01T05:44:39;96545.13;;;17.99;81.75
59831;BME280;45711;50.108;13.712;2023-08-01T05:47:05;96552.25;;;17.88;82.19
59831;BME280;45711;50.108;13.712;2023-08-01T05:49:30;96537.13;;;18.52;80.62
59831;BME280;45711;50.108;13.712;2023-08-01T05:51:56;96539.19;;;17.51;83.50
59831;BME280;45711;50.108;13.712;2023-08-01T05:54:23;96534.25;;;18.18;82.57
59831;BME280;45711;50.108;13.712;2023-08-01T05:56:48;96546.72;;;17.42;85.97
59831;BME280;45711;50.108;13.712;2023-08-01T05:59:14;96541.22;;;17.96;83.18
59831;BME280;45711;50.108;13.712;2023-08-01T06:01:39;96538.31;;;17.66;84.65
59831;BME280;45711;50.108;13.712;2023-08-01T06:04:05;96535.22;;;18.29;85.41
59831;BME280;45711;50.108;13.712;2023-08-01T06:06:31;96540.97;;;18.05;86.19
59831;BME280;45711;50.108;13.712;2023-08-01T06:08:56;96544.66;;;17.16;87.08
59831;BME280;45711;50.108;13.712;2023-08-01T06:11:23;96546.44;;;17.86;89.26
59831;BME280;45711;50.108;13.712;2023-08-01T06:13:49;96529.94;;;17.52;88.30
59831;BME280;45711;50.108;13.712;2023-08-01T06:16:14;96542.72;;;17.94;89.52
59831;BME280;45711;50.108;13.712;2023-08-01T06:18:40;96534.56;;;18.63;88.52
59831;BME280;45711;50.108;13.712;2023-08-01T06:21:05;96527.81;;;18.26;86.42
59831;BME280;45711;50.108;13.712;2023-08-01T06:23:31;96522.47;;;18.07;86.42
59831;BME280;45711;50.108;13.712;2023-08-01T06:25:56;96524.81;;;18.08;88.17
59831;BME280;45711;50.108;13.712;2023-08-01T06:28:24;96531.53;;;17.95;89.26
59831;BME280;45711;50.108;13.712;2023-08-01T06:30:49;96523.50;;;18.48;87.73
59831;BME280;45711;50.108;13.712;2023-08-01T06:33:15;96522.72;;;17.79;88.01
59831;BME280;45711;50.108;13.712;2023-08-01T06:35:40;96530.41;;;18.69;89.09
59831;BME280;45711;50.108;13.712;2023-08-01T06:38:06;96517.38;;;18.51;87.35
59831;BME280;45711;50.108;13.712;2023-08-01T06:40:31;96515.97;;;19.14;85.91
59831;BME280;45711;50.108;13.712;2023-08-01T06:42:57;96504.72;;;19.12;85.48
59831;BME280;45711;50.108;13.712;2023-08-01T06:45:24;96503.44;;;19.36;84.73
59831;BME280;45711;50.108;13.712;2023-08-01T06:47:50;96510.13;;;19.42;83.78
59831;BME280;45711;50.108;13.712;2023-08-01T06:50:15;96517.25;;;19.24;85.18
59831;BME280;45711;50.108;13.712;2023-08-01T06:52:41;96520.75;;;19.24;85.39
59831;BME280;45711;50.108;13.712;2023-08-01T06:55:07;96520.81;;;19.01;84.26
59831;BME280;45711;50.108;13.712;2023-08-01T06:57:32;96513.88;;;19.64;84.28
59831;BME280;45711;50.108;13.712;2023-08-01T06:59:58;96514.28;;;19.36;83.60
59831;BME280;45711;50.108;13.712;2023-08-01T07:02:25;96510.47;;;19.07;83.68
59831;BME280;45711;50.108;13.712;2023-08-01T07:04:50;96511.47;;;18.46;83.77
59831;BME280;45711;50.108;13.712;2023-08-01T07:07:16;96517.94;;;18.38;84.36
59831;BME280;45711;50.108;13.712;2023-08-01T07:09:42;96509.53;;;19.26;85.13
59831;BME280;45711;50.108;13.712;2023-08-01T07:12:07;96507.88;;;18.88;85.41
59831;BME280;45711;50.108;13.712;2023-08-01T07:14:33;96508.00;;;18.72;85.27
59831;BME280;45711;50.108;13.712;2023-08-01T07:16:59;96507.53;;;18.40;85.52
59831;BME280;45711;50.108;13.712;2023-08-01T07:19:26;96502.94;;;18.97;86.28
59831;BME280;45711;50.108;13.712;2023-08-01T07:21:51;96500.56;;;18.92;85.12
59831;BME280;45711;50.108;13.712;2023-08-01T07:24:17;96506.63;;;19.42;85.35
59831;BME280;45711;50.108;13.712;2023-08-01T07:26:42;96506.28;;;19.13;85.09
59831;BME280;45711;50.108;13.712;2023-08-01T07:29:08;96504.22;;;19.06;84.11
59831;BME280;45711;50.108;13.712;2023-08-01T07:31:36;96509.09;;;19.24;83.53
59831;BME280;45711;50.108;13.712;2023-08-01T07:34:01;96501.75;;;19.58;83.90
59831;BME280;45711;50.108;13.712;2023-08-01T07:36:29;96505.63;;;19.57;83.32
59831;BME280;45711;50.108;13.712;2023-08-01T07:38:54;96511.78;;;19.50;84.47
59831;BME280;45711;50.108;13.712;2023-08-01T07:41:21;96506.31;;;18.87;82.78
59831;BME280;45711;50.108;13.712;2023-08-01T07:43:47;96520.78;;;18.98;84.66
59831;BME280;45711;50.108;13.712;2023-08-01T07:46:14;96516.59;;;19.34;83.58
59831;BME280;45711;50.108;13.712;2023-08-01T07:48:39;96512.16;;;19.52;82.53
59831;BME280;45711;50.108;13.712;2023-08-01T07:51:05;96509.38;;;19.15;82.98
59831;BME280;45711;50.108;13.712;2023-08-01T07:53:34;96512.69;;;19.31;82.99
59831;BME280;45711;50.108;13.712;2023-08-01T07:55:59;96504.31;;;19.44;81.53
59831;BME280;45711;50.108;13.712;2023-08-01T07:58:27;96511.13;;;19.30;81.54
59831;BME280;45711;50.108;13.712;2023-08-01T08:00:52;96511.47;;;19.25;81.27
59831;BME280;45711;50.108;13.712;2023-08-01T08:03:18;96512.53;;;18.64;84.63
59831;BME280;45711;50.108;13.712;2023-08-01T08:05:44;96512.75;;;19.05;85.64
59831;BME280;45711;50.108;13.712;2023-08-01T08:08:10;96504.94;;;19.00;86.21
59831;BME280;45711;50.108;13.712;2023-08-01T08:10:37;96509.06;;;18.90;86.21
59831;BME280;45711;50.108;13.712;2023-08-01T08:13:02;96505.28;;;19.28;85.70
59831;BME280;45711;50.108;13.712;2023-08-01T08:15:28;96520.59;;;19.44;86.78
59831;BME280;45711;50.108;13.712;2023-08-01T08:17:58;96513.66;;;19.46;86.00
59831;BME280;45711;50.108;13.712;2023-08-01T08:20:27;96504.91;;;19.60;86.87
59831;BME280;45711;50.108;13.712;2023-08-01T08:22:53;96520.34;;;19.56;88.22
59831;BME280;45711;50.108;13.712;2023-08-01T08:25:18;96510.44;;;19.71;86.45
59831;BME280;45711;50.108;13.712;2023-08-01T08:27:45;96517.84;;;19.40;85.93
59831;BME280;45711;50.108;13.712;2023-08-01T08:30:11;96515.69;;;19.56;87.36
59831;BME280;45711;50.108;13.712;2023-08-01T08:32:37;96510.50;;;19.74;87.04
59831;BME280;45711;50.108;13.712;2023-08-01T08:35:02;96505.53;;;19.83;87.25
59831;BME280;45711;50.108;13.712;2023-08-01T08:37:28;96501.78;;;19.28;86.22
59831;BME280;45711;50.108;13.712;2023-08-01T08:39:54;96505.03;;;19.71;87.06
59831;BME280;45711;50.108;13.712;2023-08-01T08:42:19;96509.50;;;19.93;86.25
59831;BME280;45711;50.108;13.712;2023-08-01T08:44:49;96517.66;;;19.90;86.66
59831;BME280;45711;50.108;13.712;2023-08-01T08:47:17;96525.22;;;19.73;87.04
59831;BME280;45711;50.108;13.712;2023-08-01T08:49:44;96526.44;;;19.79;86.97
59831;BME280;45711;50.108;13.712;2023-08-01T08:52:11;96521.75;;;19.76;87.41
59831;BME280;45711;50.108;13.712;2023-08-01T08:54:37;96524.53;;;19.50;86.19
59831;BME280;45711;50.108;13.712;2023-08-01T08:57:05;96521.09;;;19.53;86.51
59831;BME280;45711;50.108;13.712;2023-08-01T08:59:32;96524.69;;;19.61;87.98
59831;BME280;45711;50.108;13.712;2023-08-01T09:02:00;96528.03;;;19.84;88.25
59831;BME280;45711;50.108;13.712;2023-08-01T09:04:26;96521.78;;;19.80;86.52
59831;BME280;45711;50.108;13.712;2023-08-01T09:06:55;96524.09;;;19.78;86.98
59831;BME280;45711;50.108;13.712;2023-08-01T09:09:23;96522.88;;;19.72;86.51
59831;BME280;45711;50.108;13.712;2023-08-01T09:11:52;96519.38;;;19.71;85.58
59831;BME280;45711;50.108;13.712;2023-08-01T09:14:19;96528.03;;;19.84;86.58
59831;BME280;45711;50.108;13.712;2023-08-01T09:16:45;96528.28;;;19.72;85.56
59831;BME280;45711;50.108;13.712;2023-08-01T09:19:16;96530.28;;;19.75;86.45
59831;BME280;45711;50.108;13.712;2023-08-01T09:21:43;96532.31;;;19.85;86.90
59831;BME280;45711;50.108;13.712;2023-08-01T09:24:08;96532.66;;;19.80;86.74
59831;BME280;45711;50.108;13.712;2023-08-01T09:26:34;96536.13;;;19.80;84.67
59831;BME280;45711;50.108;13.712;2023-08-01T09:29:00;96524.09;;;19.78;84.86
59831;BME280;45711;50.108;13.712;2023-08-01T09:31:26;96535.50;;;19.91;84.94
59831;BME280;45711;50.108;13.712;2023-08-01T09:33:52;96537.13;;;19.99;86.00
59831;BME280;45711;50.108;13.712;2023-08-01T09:36:22;96533.13;;;19.86;85.13
59831;BME280;45711;50.108;13.712;2023-08-01T09:38:48;96533.66;;;20.02;86.62
59831;BME280;45711;50.108;13.712;2023-08-01T09:41:16;96527.91;;;20.07;84.63
59831;BME280;45711;50.108;13.712;2023-08-01T09:43:42;96528.06;;;19.88;85.72
59831;BME280;45711;50.108;13.712;2023-08-01T09:46:07;96530.09;;;19.94;85.42
59831;BME280;45711;50.108;13.712;2023-08-01T09:48:33;96522.81;;;20.05;84.62
59831;BME280;45711;50.108;13.712;2023-08-01T09:51:09;96525.88;;;20.00;85.73
59831;BME280;45711;50.108;13.712;2023-08-01T09:53:47;96526.22;;;19.95;84.98
59831;BME280;45711;50.108;13.712;2023-08-01T09:56:14;96521.31;;;20.08;84.96
59831;BME280;45711;50.108;13.712;2023-08-01T09:58:42;96519.25;;;19.98;84.61
59831;BME280;45711;50.108;13.712;2023-08-01T10:01:08;96505.94;;;19.82;83.84
59831;BME280;45711;50.108;13.712;2023-08-01T10:03:34;96500.97;;;19.91;84.73
59831;BME280;45711;50.108;13.712;2023-08-01T10:06:00;96497.53;;;19.94;84.61
59831;BME280;45711;50.108;13.712;2023-08-01T10:08:28;96492.25;;;20.12;84.17
59831;BME280;45711;50.108;13.712;2023-08-01T10:10:55;96484.84;;;20.09;84.38
59831;BME280;45711;50.108;13.712;2023-08-01T10:13:24;96482.16;;;20.13;83.37
59831;BME280;45711;50.108;13.712;2023-08-01T10:15:50;96475.66;;;20.24;82.56
59831;BME280;45711;50.108;13.712;2023-08-01T10:18:16;96435.72;;;19.80;80.38
59831;BME280;45711;50.108;13.712;2023-08-01T10:20:43;96427.78;;;20.05;81.78
59831;BME280;45711;50.108;13.712;2023-08-01T10:23:10;96463.94;;;20.13;83.77
59831;BME280;45711;50.108;13.712;2023-08-01T10:25:37;96463.19;;;20.16;83.32
59831;BME280;45711;50.108;13.712;2023-08-01T10:28:06;96474.47;;;20.22;82.21
59831;BME280;45711;50.108;13.712;2023-08-01T10:30:31;96468.59;;;20.13;80.81
59831;BME280;45711;50.108;13.712;2023-08-01T10:32:59;96474.75;;;20.09;82.04
59831;BME280;45711;50.108;13.712;2023-08-01T10:35:37;96462.84;;;20.21;82.89
59831;BME280;45711;50.108;13.712;2023-08-01T10:38:04;96444.63;;;20.25;81.59
59831;BME280;45711;50.108;13.712;2023-08-01T10:40:36;96455.78;;;20.13;80.82
59831;BME280;45711;50.108;13.712;2023-08-01T10:43:02;96449.91;;;20.04;79.91
59831;BME280;45711;50.108;13.712;2023-08-01T10:45:29;96445.31;;;20.12;81.30
59831;BME280;45711;50.108;13.712;2023-08-01T10:48:06;96456.22;;;20.19;81.77
59831;BME280;45711;50.108;13.712;2023-08-01T10:50:32;96456.19;;;20.15;80.04
59831;BME280;45711;50.108;13.712;2023-08-01T10:53:02;96465.47;;;20.14;80.63
59831;BME280;45711;50.108;13.712;2023-08-01T10:55:38;96462.50;;;20.30;80.23
59831;BME280;45711;50.108;13.712;2023-08-01T10:58:04;96466.38;;;20.25;80.84
59831;BME280;45711;50.108;13.712;2023-08-01T11:00:31;96445.75;;;20.21;79.23
59831;BME280;45711;50.108;13.712;2023-08-01T11:02:57;96433.25;;;20.09;79.97
59831;BME280;45711;50.108;13.712;2023-08-01T11:05:22;96423.69;;;20.26;80.50
59831;BME280;45711;50.108;13.712;2023-08-01T11:07:55;96423.13;;;20.06;79.30
59831;BME280;45711;50.108;13.712;2023-08-01T11:10:21;96417.97;;;19.90;77.76
59831;BME280;45711;50.108;13.712;2023-08-01T11:12:47;96417.41;;;20.18;78.07
59831;BME280;45711;50.108;13.712;2023-08-01T11:15:14;96414.44;;;20.34;79.71
59831;BME280;45711;50.108;13.712;2023-08-01T11:17:43;96409.88;;;20.49;76.00
59831;BME280;45711;50.108;13.712;2023-08-01T11:20:12;96417.19;;;20.45;78.97
59831;BME280;45711;50.108;13.712;2023-08-01T11:22:52;96412.25;;;20.57;75.92
59831;BME280;45711;50.108;13.712;2023-08-01T11:28:03;96411.06;;;20.51;77.24
59831;BME280;45711;50.108;13.712;2023-08-01T11:30:30;96409.16;;;20.63;77.12
59831;BME280;45711;50.108;13.712;2023-08-01T11:32:58;96402.16;;;20.58;76.54
59831;BME280;45711;50.108;13.712;2023-08-01T11:35:24;96407.22;;;20.63;76.85
59831;BME280;45711;50.108;13.712;2023-08-01T11:37:50;96413.47;;;20.64;76.84
59831;BME280;45711;50.108;13.712;2023-08-01T11:40:16;96415.91;;;20.87;76.88
59831;BME280;45711;50.108;13.712;2023-08-01T11:42:42;96426.97;;;20.53;77.48
59831;BME280;45711;50.108;13.712;2023-08-01T11:45:09;96427.72;;;20.50;77.26
59831;BME280;45711;50.108;13.712;2023-08-01T11:47:35;96423.03;;;20.43;76.93
59831;BME280;45711;50.108;13.712;2023-08-01T11:50:02;96432.66;;;20.37;77.08
59831;BME280;45711;50.108;13.712;2023-08-01T11:52:29;96433.88;;;20.43;76.84
59831;BME280;45711;50.108;13.712;2023-08-01T11:54:55;96442.75;;;20.37;77.15
59831;BME280;45711;50.108;13.712;2023-08-01T11:57:20;96441.63;;;20.38;77.06
59831;BME280;45711;50.108;13.712;2023-08-01T11:59:47;96440.06;;;20.40;76.50
59831;BME280;45711;50.108;13.712;2023-08-01T12:02:20;96449.31;;;20.32;77.34
59831;BME280;45711;50.108;13.712;2023-08-01T12:04:46;96433.47;;;20.41;76.32
59831;BME280;45711;50.108;13.712;2023-08-01T12:07:14;96449.34;;;20.36;78.05
59831;BME280;45711;50.108;13.712;2023-08-01T12:09:40;96431.13;;;20.36;75.39
59831;BME280;45711;50.108;13.712;2023-08-01T12:12:06;96445.09;;;20.34;76.30
59831;BME280;45711;50.108;13.712;2023-08-01T12:14:32;96443.94;;;20.39;76.61
59831;BME280;45711;50.108;13.712;2023-08-01T12:16:58;96443.50;;;20.30;75.58
59831;BME280;45711;50.108;13.712;2023-08-01T12:19:23;96436.13;;;20.30;76.28
59831;BME280;45711;50.108;13.712;2023-08-01T12:21:49;96428.78;;;20.34;76.36
59831;BME280;45711;50.108;13.712;2023-08-01T12:24:16;96434.66;;;20.44;76.59
59831;BME280;45711;50.108;13.712;2023-08-01T12:26:42;96423.78;;;20.44;75.97
59831;BME280;45711;50.108;13.712;2023-08-01T12:29:08;96428.03;;;20.41;76.03
59831;BME280;45711;50.108;13.712;2023-08-01T12:31:33;96436.50;;;20.32;75.17
59831;BME280;45711;50.108;13.712;2023-08-01T12:33:59;96428.00;;;20.34;75.23
59831;BME280;45711;50.108;13.712;2023-08-01T12:36:24;96429.13;;;20.29;75.69
59831;BME280;45711;50.108;13.712;2023-08-01T12:38:50;96425.31;;;20.38;74.99
59831;BME280;45711;50.108;13.712;2023-08-01T12:41:17;96419.09;;;20.37;72.90
59831;BME280;45711;50.108;13.712;2023-08-01T12:43:43;96420.22;;;20.32;75.24
59831;BME280;45711;50.108;13.712;2023-08-01T12:46:08;96409.00;;;20.34;74.87
59831;BME280;45711;50.108;13.712;2023-08-01T12:48:34;96419.53;;;20.43;75.55